Girard, Louisiana
Current Conditions -  °F | °C
As of 5:53 PM on Monday 20 Oct 2014 (Local Time) from KMLU Reporting Station
Clear Clear  
Wind Chill: 73°   Ceiling: Unl
Heat Index: 73°   Visibility: 10mi
Dew Point: 53°   Wind: 3mph
Humidity: 49%   Direction: 20°NNE
Pressure: 30.03"   Gusts: NA
Location:  32.4475°N, 91.7992°W
Report Text: KMLU 202253Z 02003KT 10SM CLR 23/12 A3003 RMK AO2 SLP169 T02280117
Loading
Personal Weather Stations






























Interactive Weather Map
Tropical Storm Tracking
New forecast layout! Learn more

10-Day Weather Forecast

Advertisements
Track Severe Weather on mobile